Terminal Aerodrome Forecast
Issued by NWS

Home | Current Version | Previous Version | Text Only | Print | Product List | Glossary On
Versions: 1 2 3 4 5 6 7 8 9 10 11 12 13 14 15 16 17
000
FTAK31 PAJN 261700
TAFAPG
TAF
PAPG 261725Z 2618/2718 VRB03KT 6SM -SHRA FEW003 BKN025 OVC035
     FM262300 14008KT P6SM VCSH SCT010 OVC030
     FM270100 VRB06KT P6SM VCSH SCT025 BKN040
     FM270700 VRB03KT 4SM BR VCSH SCT005 BKN040
      TEMPO 2715/2718 1SM BR BKN005 BKN040
      AMD LTD TO CLD VIS AND WIND 2706/2715=

USA.gov is the U.S. government's official web portal to all federal, state and local government web resources and services.